• Join FlightAware (Why Join?)
  • Login
  • US Flag 
Rudolph Flight #1: Arrived! 
04:22AM EST


 

Airport Tracker/Info


-or-


 

Live Flight TrackerFlight Track Log ✈ CSN3364 ✈ 27-May-2013 ✈ ZHLY / LYA - ZGGG / CAN

Flight Track Log - Related Links

Times and Time Zones

All times are in EDT time to prevent confusion due to time zone crossing. See the CSN3364 flight status page for this flight to view local times or setup timezone preferences in your user account.

Time Position Orientation Groundspeed Altitude Reporting Facility
EDT Latitude Longitude Course Direction KTS MPH feet Rate Location/Type
11:34PM 34.6164 112.3996 176° South  Level Estimated
11:35PM 34.4917 112.4108 176° South  Level Estimated
11:36PM 34.3670 112.4219 176° South  Level Estimated
11:37PM 34.2423 112.4331 176° South  Level Estimated
11:38PM 34.1176 112.4442 176° South  Level Estimated
11:39PM 33.9929 112.4552 176° South  Level Estimated
11:40PM 33.8682 112.4663 176° South  Level Estimated
11:41PM 33.7435 112.4773 176° South  Level Estimated
11:42PM 33.6188 112.4882 176° South  Level Estimated
11:43PM 33.4941 112.4992 176° South  Level Estimated
11:44PM 33.3694 112.5101 176° South  Level Estimated
11:45PM 33.2447 112.5210 176° South  Level Estimated
11:46PM 33.1200 112.5318 176° South  Level Estimated
11:47PM 32.9953 112.5426 176° South  Level Estimated
11:48PM 32.8706 112.5534 176° South  Level Estimated
11:49PM 32.7459 112.5641 176° South  Level Estimated
11:50PM 32.6212 112.5749 176° South  Level Estimated
11:51PM 32.4965 112.5856 176° South  Level Estimated
11:52PM 32.3718 112.5962 176° South  Level Estimated
11:53PM 32.2471 112.6068 176° South  Level Estimated
11:54PM 32.1223 112.6175 176° South  Level Estimated
11:55PM 31.9976 112.6280 176° South  Level Estimated
11:56PM 31.8729 112.6386 176° South  Level Estimated
11:57PM 31.7482 112.6491 176° South  Level Estimated
11:58PM 31.6235 112.6596 176° South  Level Estimated
11:59PM 31.4988 112.6701 176° South  Level Estimated
12:00AM 31.3740 112.6805 176° South  Level Estimated
12:01AM 31.2493 112.6909 176° South  Level Estimated
12:02AM 31.1246 112.7013 176° South  Level Estimated
12:03AM 30.9999 112.7116 176° South  Level Estimated
12:04AM 30.8752 112.7220 176° South  Level Estimated
12:05AM 30.7504 112.7323 176° South  Level Estimated
12:06AM 30.6257 112.7425 176° South  Level Estimated
12:07AM 30.5010 112.7528 176° South  Level Estimated
12:08AM 30.3763 112.7630 176° South  Level Estimated
12:09AM 30.2516 112.7732 176° South  Level Estimated
12:10AM 30.1268 112.7834 176° South  Level Estimated
12:11AM 30.0021 112.7935 176° South  Level Estimated
12:12AM 29.8774 112.8036 176° South  Level Estimated
12:13AM 29.7526 112.8137 176° South  Level Estimated
12:14AM 29.6279 112.8238 176° South  Level Estimated
12:15AM 29.5032 112.8338 176° South  Level Estimated
12:16AM 29.3784 112.8438 176° South  Level Estimated
12:17AM 29.2537 112.8538 176° South  Level Estimated
12:18AM 29.1290 112.8638 176° South  Level Estimated
12:19AM 29.0042 112.8737 176° South  Level Estimated
12:20AM 28.8795 112.8837 176° South  Level Estimated
12:21AM 28.7548 112.8936 176° South  Level Estimated
12:22AM 28.6301 112.9034 176° South  Level Estimated
12:23AM 28.5053 112.9133 176° South  Level Estimated
12:24AM 28.3806 112.9231 176° South  Level Estimated
12:25AM 28.2558 112.9329 176° South  Level Estimated
12:26AM 28.1311 112.9427 176° South  Level Estimated
12:27AM 28.0064 112.9525 176° South  Level Estimated
12:28AM 27.8816 112.9622 176° South  Level Estimated
12:29AM 27.7569 112.9719 176° South  Level Estimated
12:30AM 27.6321 112.9816 176° South  Level Estimated
12:31AM 27.5074 112.9912 176° South  Level Estimated
12:32AM 27.3827 113.0009 176° South  Level Estimated
12:33AM 27.2579 113.0105 176° South  Level Estimated
12:34AM 27.1332 113.0201 176° South  Level Estimated
12:35AM 27.0084 113.0297 176° South  Level Estimated
12:36AM 26.8837 113.0393 176° South  Level Estimated
12:37AM 26.7589 113.0488 176° South  Level Estimated
12:38AM 26.6342 113.0583 176° South  Level Estimated
12:39AM 26.5095 113.0678 176° South  Level Estimated
12:40AM 26.3847 113.0773 176° South  Level Estimated
12:41AM 26.2600 113.0867 176° South  Level Estimated
12:42AM 26.1352 113.0962 176° South  Level Estimated
12:43AM 26.0105 113.1056 176° South  Level Estimated
12:44AM 25.8857 113.1150 176° South  Level Estimated
12:45AM 25.7610 113.1244 176° South  Level Estimated
12:46AM 25.6362 113.1337 176° South  Level Estimated
12:47AM 25.5114 113.1431 176° South  Level Estimated
12:48AM 25.3867 113.1524 176° South  Level Estimated
12:49AM 25.2619 113.1617 176° South  Level Estimated
12:50AM 25.1372 113.1710 176° South  Level Estimated
12:51AM 25.0124 113.1802 176° South  Level Estimated
12:52AM 24.8877 113.1895 176° South  Level Estimated
12:53AM 24.7630 113.1987 176° South  Level Estimated
12:54AM 24.6382 113.2079 176° South  Level Estimated
12:55AM 24.5134 113.2171 176° South  Level Estimated
12:55AM 24.3490 113.7000 176° South 332 382 15,300  Level FlightAware
12:56AM 24.3887 113.2262 176° South  Level Estimated
12:56AM 24.2890 113.6360 224° Southwest 325 374 14,200  Level FlightAware
12:57AM 24.2639 113.2354 176° South  Level Estimated
12:57AM 24.2570 113.5740 240° Southwest 318 366 13,700  Level FlightAware
12:58AM 24.2230 113.5140 238° Southwest 302 348 13,100 -780 Descending FlightAware
12:58AM 24.2110 113.5050 214° Southwest 298 343 13,000 -720 Descending FlightAware
12:59AM 24.1670 113.4650 220° Southwest 284 327 12,500 -660 Descending FlightAware
01:00AM 24.1290 113.4170 229° Southwest 285 328 12,100 -660 Descending FlightAware
01:00AM 24.0790 113.3960 201° Southwest 289 333 11,600 -720 Descending FlightAware
01:01AM 24.0480 113.3800 205° Southwest 296 341 11,300 -960 Descending FlightAware
01:01AM 23.9870 113.3760 183° South 295 339 10,500 -1,320 Descending FlightAware
01:02AM 23.9470 113.3740 183° South 294 338 9,700 -1,740 Descending FlightAware
01:02AM 23.9080 113.3720 183° South 291 335 8,900 -1,620 Descending FlightAware
01:03AM 23.8770 113.3700 183° South 289 333 8,300 -1,620 Descending FlightAware
01:03AM 23.8180 113.3730 177° South 291 335 7,100 -1,680 Descending FlightAware
01:04AM 23.7770 113.3790 172° South 287 330 6,300 -1,500 Descending FlightAware
01:04AM 23.7410 113.3830 174° South 280 322 5,700 -1,080 Descending FlightAware
01:05AM 23.7060 113.3850 177° South 265 305 5,300 -840 Descending FlightAware
01:06AM 23.6590 113.3840 181° South 243 280 4,800 -780 Descending FlightAware
01:06AM 23.6410 113.3830 183° South 233 268 4,600 -840 Descending FlightAware
01:06AM 23.6130 113.3790 187° South 205 236 4,200 -900 Descending FlightAware
01:07AM 23.5910 113.3660 208° Southwest 185 213 3,800 -900 Descending FlightAware
01:07AM 23.5720 113.3510 216° Southwest 182 209 3,400 -660 Descending FlightAware
01:08AM 23.5540 113.3340 221° Southwest 170 196 3,200 -600 Descending FlightAware
01:08AM 23.5460 113.3290 210° Southwest 173 199 3,000 -1,080 Descending FlightAware
01:08AM 23.5250 113.3240 192° South 157 181 2,500 -540 Descending FlightAware
01:09AM 23.5080 113.3200 192° South 156 180 2,500  Level FlightAware
01:11AM 23.3924 113.2988 190° South  Level Estimated
01:12AM 23.3924 113.2988 223° Southwest  Level Estimated
01:13AM 23.3924 113.2988 223° Southwest  Level Estimated
01:14AM 23.3924 113.2988 223° Southwest  Level Estimated
01:15AM 23.3924 113.2988 223° Southwest  Level Estimated
01:16AM 23.3924 113.2988 223° Southwest  Level Estimated
01:17AM 23.3924 113.2988 223° Southwest  Level Estimated
01:18AM 23.3924 113.2988 223° Southwest  Level Estimated
01:19AM 23.3924 113.2988 223° Southwest  Level Estimated
01:20AM 23.3924 113.2988 223° Southwest  Level Estimated